Time;durP1;ratioP1;P1;durP2;ratioP2;P2;SDS_P1;SDS_P2;PMS_P1;PMS_P2;Temp;Humidity;BMP_temperature;BMP_pressure;BME280_temperature;BME280_humidity;BME280_pressure;Samples;Min_cycle;Max_cycle;Signal;HPM_P1;HPM_P2
2021/03/10 00:00:46;;;;;;;14.23;9.93;;;;;;;1.80;100.00;92784.81;5090077;28;20052;-91
2021/03/10 00:03:13;;;;;;;;;;;;;;;1.78;100.00;92787.53;5091247;28;20095;-90
2021/03/10 00:05:39;;;;;;;22.35;12.23;;;;;;;1.83;100.00;92792.06;5094279;28;19969;-91
2021/03/10 00:08:08;;;;;;;;;;;;;;;1.80;100.00;92777.22;5073183;28;20060;-91
2021/03/10 00:10:35;;;;;;;24.48;10.02;;;;;;;1.76;100.00;92776.75;5020666;28;20277;-90
2021/03/10 00:13:01;;;;;;;;;;;;;;;1.79;100.00;92778.97;5034751;28;20057;-91
2021/03/10 00:15:27;;;;;;;33.45;10.50;;;;;;;1.79;100.00;92773.09;5025947;28;19968;-91
2021/03/10 00:17:53;;;;;;;15.25;11.13;;;;;;;1.82;100.00;92765.19;5013947;28;20145;-91
2021/03/10 00:20:20;;;;;;;;;;;;;;;1.85;100.00;92762.31;5014591;28;20051;-90
2021/03/10 00:22:46;;;;;;;13.57;8.95;;;;;;;1.75;100.00;92744.03;5013979;28;19922;-90
2021/03/10 00:25:13;;;;;;;;;;;;;;;1.82;100.00;92747.44;5014318;28;20046;-90
2021/03/10 00:27:40;;;;;;;18.83;10.48;;;;;;;1.53;100.00;92695.72;5014202;28;19922;-91
2021/03/10 00:30:09;;;;;;;22.40;10.18;;;;;;;1.55;100.00;92714.03;5004637;28;20054;-90
2021/03/10 00:32:36;;;;;;;16.38;10.75;;;;;;;1.67;100.00;92735.50;5014999;28;20054;-91
2021/03/10 00:35:04;;;;;;;23.08;10.25;;;;;;;1.58;100.00;92741.56;5013722;28;20516;-90
2021/03/10 00:37:32;;;;;;;16.50;12.05;;;;;;;1.53;100.00;92734.47;5013536;28;20559;-88
2021/03/10 00:39:58;;;;;;;23.55;10.65;;;;;;;1.71;100.00;92735.97;5013635;28;20042;-90
2021/03/10 00:42:24;;;;;;;;;;;;;;;1.72;100.00;92738.31;5014583;28;20064;-90
2021/03/10 00:44:50;;;;;;;26.13;11.85;;;;;;;1.73;100.00;92739.88;5013725;28;19921;-90
2021/03/10 00:47:17;;;;;;;20.23;9.98;;;;;;;1.81;100.00;92741.59;5013557;28;20045;-90
2021/03/10 00:49:43;;;;;;;;;;;;;;;1.81;100.00;92731.47;5013986;28;20050;-90
2021/03/10 00:52:10;;;;;;;19.10;11.02;;;;;;;1.89;100.00;92725.56;5013335;28;19921;-89
2021/03/10 00:54:37;;;;;;;23.90;13.82;;;;;;;1.92;100.00;92725.22;5013722;28;20054;-89
2021/03/10 00:57:04;;;;;;;27.17;13.82;;;;;;;2.00;100.00;92732.75;5013320;28;20559;-89
2021/03/10 00:59:30;;;;;;;26.67;13.75;;;;;;;2.05;100.00;92726.41;5013383;28;20053;-90
2021/03/10 01:01:57;;;;;;;24.17;12.18;;;;;;;2.13;100.00;92724.59;5013374;28;20042;-90
2021/03/10 01:04:23;;;;;;;18.00;9.35;;;;;;;1.93;100.00;92700.66;5013335;28;20060;-89
2021/03/10 01:06:49;;;;;;;15.60;9.50;;;;;;;1.93;100.00;92721.72;5013093;28;20049;-89
2021/03/10 01:09:17;;;;;;;;;;;;;;;1.63;100.00;92714.03;5013754;28;20095;-90
2021/03/10 01:11:44;;;;;;;18.33;8.15;;;;;;;1.68;100.00;92713.50;5013273;28;20409;-90
2021/03/10 01:14:10;;;;;;;13.10;7.97;;;;;;;1.76;100.00;92715.19;5013041;28;20130;-90
2021/03/10 01:16:37;;;;;;;;;;;;;;;1.50;100.00;92713.75;5030941;28;20046;-90
2021/03/10 01:19:04;;;;;;;17.15;9.38;;;;;;;1.21;100.00;92708.38;5032616;28;19925;-90
2021/03/10 01:21:30;;;;;;;21.45;8.38;;;;;;;1.11;100.00;92700.97;5032497;28;20060;-89
2021/03/10 01:23:57;;;;;;;14.95;9.35;;;;;;;1.16;100.00;92701.25;5032920;28;20053;-89
2021/03/10 01:26:23;;;;;;;14.88;7.20;;;;;;;1.16;100.00;92698.72;5032757;28;20046;-90
2021/03/10 01:28:50;;;;;;;;;;;;;;;1.11;100.00;92695.13;5033055;28;20053;-89
2021/03/10 01:31:16;;;;;;;19.77;9.15;;;;;;;0.99;100.00;92689.63;5032460;28;19921;-89
2021/03/10 01:33:43;;;;;;;16.33;8.50;;;;;;;0.96;100.00;92684.91;5032337;28;20060;-89
2021/03/10 01:36:09;;;;;;;13.70;8.80;;;;;;;1.02;100.00;92682.50;5032351;28;20493;-90
2021/03/10 01:38:35;;;;;;;12.75;7.15;;;;;;;1.11;100.00;92682.47;5032232;28;20064;-89
2021/03/10 01:41:01;;;;;;;;;;;;;;;1.00;100.00;92671.75;5033022;28;20056;-89
2021/03/10 01:43:28;;;;;;;10.07;8.55;;;;;;;0.83;100.00;92635.63;5032381;28;19944;-89
2021/03/10 01:45:55;;;;;;;;;;;;;;;1.16;100.00;92670.13;5032773;28;20101;-89
2021/03/10 01:48:23;;;;;;;22.30;8.82;;;;;;;1.17;100.00;92667.41;5031987;28;19944;-90
2021/03/10 01:50:49;;;;;;;22.52;11.93;;;;;;;1.37;100.00;92658.63;5032123;28;20057;-90
2021/03/10 01:53:16;;;;;;;13.98;8.70;;;;;;;1.39;100.00;92656.72;5032266;28;20056;-89
2021/03/10 01:55:44;;;;;;;14.75;9.13;;;;;;;1.35;100.00;92656.28;5031977;28;20052;-89
2021/03/10 01:58:10;;;;;;;20.45;12.73;;;;;;;1.39;100.00;92656.72;5032027;28;20447;-90
2021/03/10 02:00:37;;;;;;;20.92;11.63;;;;;;;1.45;100.00;92645.94;5032009;28;20136;-89
2021/03/10 02:03:04;;;;;;;26.08;11.45;;;;;;;1.56;100.00;92649.81;5031733;28;20049;-90
2021/03/10 02:05:31;;;;;;;18.92;10.55;;;;;;;1.60;100.00;92644.25;5032042;28;20060;-89
2021/03/10 02:08:22;;;;;;;16.60;10.60;;;;;;;1.67;100.00;92628.38;5031937;28;20041;-92
2021/03/10 02:11:10;;;;;;;20.27;11.75;;;;;;;1.64;100.00;92628.72;5030000;28;20053;-88
2021/03/10 02:13:44;;;;;;;20.40;10.98;;;;;;;1.60;100.00;92613.88;5031552;28;20046;-88
2021/03/10 02:16:21;;;;;;;20.48;11.77;;;;;;;1.71;100.00;92632.94;5031656;28;20132;-89
2021/03/10 02:18:59;;;;;;;27.40;13.15;;;;;;;1.70;100.00;92618.69;5031420;28;20054;-89
2021/03/10 02:21:37;;;;;;;18.38;11.35;;;;;;;1.73;100.00;92620.09;5031526;28;20049;-88
2021/03/10 02:24:21;;;;;;;19.17;9.10;;;;;;;1.73;100.00;92618.34;5031380;28;20053;-88
2021/03/10 02:27:34;;;;;;;22.30;10.15;;;;;;;1.69;100.00;92603.66;5030673;28;20525;-88
2021/03/10 02:30:06;;;;;;;31.77;12.13;;;;;;;1.72;100.00;92608.41;5029086;28;20045;-89
2021/03/10 02:32:34;;;;;;;33.40;14.25;;;;;;;1.72;100.00;92614.25;5031198;28;20424;-89
2021/03/10 02:35:03;;;;;;;25.20;12.57;;;;;;;1.74;100.00;92619.16;5031490;28;20408;-89
2021/03/10 02:37:30;;;;;;;21.85;14.38;;;;;;;1.77;100.00;92607.88;5031272;28;20053;-89
2021/03/10 02:39:57;;;;;;;20.80;11.93;;;;;;;1.76;100.00;92613.91;5031220;28;20060;-89
2021/03/10 02:42:25;;;;;;;21.75;13.20;;;;;;;1.81;100.00;92609.13;5031114;28;20049;-89
2021/03/10 02:44:51;;;;;;;27.27;15.10;;;;;;;1.75;100.00;92609.81;5031087;28;20095;-90
2021/03/10 02:47:19;;;;;;;26.27;14.88;;;;;;;1.76;100.00;92604.56;5031305;28;20054;-90
2021/03/10 02:49:47;;;;;;;17.55;12.25;;;;;;;1.79;100.00;92608.50;5024731;28;20061;-89
2021/03/10 02:52:14;;;;;;;31.33;16.15;;;;;;;1.65;100.00;92569.53;5011437;28;20054;-90
2021/03/10 02:54:42;;;;;;;23.92;14.07;;;;;;;1.80;100.00;92602.50;5011373;28;20049;-90
2021/03/10 02:57:09;;;;;;;25.17;13.23;;;;;;;1.68;100.00;92584.38;5011365;28;20053;-90
2021/03/10 02:59:36;;;;;;;38.00;15.93;;;;;;;1.68;100.00;92574.25;5011257;28;20050;-89
2021/03/10 03:02:02;;;;;;;33.55;17.83;;;;;;;1.81;100.00;92588.88;5011521;28;20052;-90
2021/03/10 03:04:30;;;;;;;28.60;17.13;;;;;;;1.82;100.00;92591.25;5026804;28;20541;-90
2021/03/10 03:06:56;;;;;;;26.02;15.23;;;;;;;1.85;100.00;92590.88;5030911;28;20068;-90
2021/03/10 03:09:22;;;;;;;21.48;13.70;;;;;;;1.69;100.00;92563.97;5031010;28;20049;-90
2021/03/10 03:11:49;;;;;;;31.85;16.33;;;;;;;1.74;100.00;92576.09;5031014;28;20099;-90
2021/03/10 03:14:18;;;;;;;31.77;16.20;;;;;;;1.93;100.00;92586.69;5031110;28;20056;-90
2021/03/10 03:16:45;;;;;;;31.40;16.75;;;;;;;1.96;100.00;92593.97;5031159;28;20049;-91
2021/03/10 03:19:11;;;;;;;23.30;13.88;;;;;;;2.00;100.00;92580.78;5030947;28;20049;-91
2021/03/10 03:21:40;;;;;;;21.30;10.95;;;;;;;1.95;100.00;92575.44;5030805;28;20049;-90
2021/03/10 03:24:07;;;;;;;28.17;13.23;;;;;;;2.03;100.00;92589.78;5030746;28;20054;-92
2021/03/10 03:26:35;;;;;;;26.15;11.23;;;;;;;2.07;100.00;92587.69;5030621;28;20046;-91
2021/03/10 03:29:01;;;;;;;23.80;12.75;;;;;;;2.11;100.00;92589.72;5030570;28;20049;-90
2021/03/10 03:31:31;;;;;;;24.98;12.57;;;;;;;2.10;100.00;92575.47;5030623;28;20056;-90
2021/03/10 03:33:58;;;;;;;22.42;12.43;;;;;;;2.16;100.00;92576.50;5030764;28;20045;-90
2021/03/10 03:36:25;;;;;;;23.65;13.00;;;;;;;2.15;100.00;92582.53;5030842;28;20053;-90
2021/03/10 03:38:53;;;;;;;15.68;8.50;;;;;;;2.17;100.00;92577.31;5031789;28;20061;-91
2021/03/10 03:41:21;;;;;;;21.27;11.50;;;;;;;2.17;100.00;92578.09;5034774;28;20062;-91
2021/03/10 03:43:48;;;;;;;21.85;11.88;;;;;;;1.92;100.00;92532.75;5035061;28;20512;-90
2021/03/10 03:46:14;;;;;;;23.63;13.95;;;;;;;2.24;100.00;92571.38;5034726;28;20049;-90
2021/03/10 03:48:41;;;;;;;17.98;11.27;;;;;;;1.98;100.00;92549.78;5034578;28;20046;-91
2021/03/10 03:51:22;;;;;;;17.92;11.57;;;;;;;2.20;100.00;92572.69;5034965;28;20050;-91
2021/03/10 03:53:55;;;;;;;16.15;9.55;;;;;;;2.12;100.00;92557.53;5034413;28;20052;-90
2021/03/10 03:56:21;;;;;;;21.27;9.98;;;;;;;2.02;100.00;92562.06;5034633;28;20050;-90
2021/03/10 03:58:48;;;;;;;18.80;10.23;;;;;;;2.18;100.00;92576.34;5034533;28;20085;-91
2021/03/10 04:01:14;;;;;;;14.35;9.18;;;;;;;2.14;100.00;92579.22;5034266;28;20052;-91
2021/03/10 04:03:41;;;;;;;20.55;9.15;;;;;;;2.10;100.00;92565.34;5034215;28;20050;-91
2021/03/10 04:06:07;;;;;;;16.75;9.80;;;;;;;2.09;100.00;92557.91;5034008;28;20068;-91
2021/03/10 04:08:34;;;;;;;23.55;10.13;;;;;;;1.52;100.00;92547.34;5033976;28;20141;-90
2021/03/10 04:11:01;;;;;;;13.30;8.05;;;;;;;1.56;100.00;92559.47;5034019;28;20087;-89
2021/03/10 04:13:28;;;;;;;14.20;8.80;;;;;;;1.51;100.00;92561.72;5034453;28;20045;-91
2021/03/10 04:15:54;;;;;;;12.88;6.95;;;;;;;1.63;100.00;92566.38;5033939;28;20140;-90
2021/03/10 04:18:20;;;;;;;15.68;7.35;;;;;;;1.70;100.00;92567.25;5033739;28;20421;-90
2021/03/10 04:20:46;;;;;;;;;;;;;;;1.80;100.00;92565.28;5034346;28;20060;-90
2021/03/10 04:23:13;;;;;;;14.73;7.53;;;;;;;1.39;100.00;92520.06;5033912;28;19921;-91
2021/03/10 04:25:40;;;;;;;12.68;7.43;;;;;;;1.47;100.00;92547.81;5033980;28;20049;-92
2021/03/10 04:28:07;;;;;;;9.18;6.32;;;;;;;1.55;100.00;92544.44;5033418;28;20061;-90
2021/03/10 04:30:34;;;;;;;15.23;8.20;;;;;;;1.35;100.00;92513.78;5029551;28;20054;-90
2021/03/10 04:33:00;;;;;;;12.13;6.50;;;;;;;1.71;100.00;92556.19;5033274;28;20560;-90
2021/03/10 04:35:27;;;;;;;16.48;9.85;;;;;;;1.42;100.00;92543.28;5033515;28;20086;-90
2021/03/10 04:37:53;;;;;;;16.15;7.60;;;;;;;1.60;100.00;92559.91;5033397;28;20156;-90
2021/03/10 04:40:20;;;;;;;22.30;10.43;;;;;;;1.66;100.00;92550.88;5033671;28;20045;-91
2021/03/10 04:42:47;;;;;;;13.52;8.10;;;;;;;1.62;100.00;92549.63;5033576;28;20053;-91
2021/03/10 04:45:15;;;;;;;15.43;8.57;;;;;;;1.69;100.00;92556.38;5033302;28;20045;-90
2021/03/10 04:47:41;;;;;;;15.18;7.85;;;;;;;1.67;100.00;92547.38;5033193;28;20046;-91
2021/03/10 04:50:10;;;;;;;17.10;10.00;;;;;;;1.66;100.00;92556.69;5032715;28;20045;-89
2021/03/10 04:52:36;;;;;;;17.38;9.85;;;;;;;1.57;100.00;92550.16;5027950;28;20402;-90
2021/03/10 04:55:03;;;;;;;;;;;;;;;1.77;100.00;92547.13;5013871;28;20045;-90
2021/03/10 04:57:29;;;;;;;18.35;8.30;;;;;;;1.78;100.00;92543.63;5013367;28;19921;-90
2021/03/10 04:59:55;;;;;;;;;;;;;;;1.79;100.00;92537.59;5030119;28;20056;-89
2021/03/10 05:02:22;;;;;;;9.88;6.10;;;;;;;1.87;100.00;92540.84;5025054;28;19921;-90
2021/03/10 05:04:49;;;;;;;15.27;7.20;;;;;;;1.85;100.00;92527.56;5013169;28;20056;-90
2021/03/10 05:07:15;;;;;;;7.82;5.20;;;;;;;2.05;100.00;92532.13;5013136;28;20490;-90
2021/03/10 05:09:41;;;;;;;11.02;6.03;;;;;;;2.07;100.00;92534.47;5013054;28;20099;-92
2021/03/10 05:12:09;;;;;;;15.00;7.35;;;;;;;2.04;100.00;92502.69;5013165;28;20064;-90
2021/03/10 05:14:35;;;;;;;13.20;6.72;;;;;;;1.75;100.00;92483.22;5013073;28;20096;-91
2021/03/10 05:17:02;;;;;;;17.48;9.57;;;;;;;1.80;100.00;92498.66;5012816;28;20045;-91
2021/03/10 05:19:29;;;;;;;22.50;12.05;;;;;;;1.69;100.00;92490.53;5013054;28;20068;-90
2021/03/10 05:21:56;;;;;;;22.33;12.63;;;;;;;1.39;100.00;92475.28;5013023;28;20054;-90
2021/03/10 05:24:22;;;;;;;20.58;12.48;;;;;;;1.96;100.00;92520.50;5013081;28;20060;-90
2021/03/10 05:26:48;;;;;;;;;;;;;;;2.07;100.00;92525.13;5013063;28;20042;-90
2021/03/10 05:29:14;;;;;;;40.83;19.23;;;;;;;2.13;100.00;92526.22;5013283;28;19967;-90
2021/03/10 05:31:41;;;;;;;46.28;19.33;;;;;;;1.62;100.00;92444.06;5012656;28;20053;-90
2021/03/10 05:34:07;;;;;;;18.75;10.52;;;;;;;2.23;100.00;92531.00;5012687;28;20045;-91
2021/03/10 05:36:36;;;;;;;31.45;15.85;;;;;;;1.97;100.00;92501.81;5012809;28;20054;-90
2021/03/10 05:39:03;;;;;;;17.23;10.45;;;;;;;1.78;100.00;92480.31;5012594;28;20085;-91
2021/03/10 05:41:30;;;;;;;10.57;7.15;;;;;;;2.21;100.00;92525.31;5012606;28;20061;-91
2021/03/10 05:43:58;;;;;;;20.92;10.40;;;;;;;1.82;100.00;92509.41;5012511;28;20092;-90
2021/03/10 05:46:25;;;;;;;18.55;11.05;;;;;;;1.94;100.00;92527.50;5013237;28;20152;-90
2021/03/10 05:48:51;;;;;;;17.40;11.00;;;;;;;2.03;100.00;92523.91;5012651;28;20062;-90
2021/03/10 05:51:18;;;;;;;17.40;10.10;;;;;;;2.09;100.00;92512.31;5012427;28;20169;-90
2021/03/10 05:53:46;;;;;;;14.15;9.00;;;;;;;2.14;100.00;92515.09;5012333;28;20097;-90
2021/03/10 05:56:14;;;;;;;26.77;10.00;;;;;;;1.96;100.00;92469.84;5012301;28;20067;-90
2021/03/10 05:58:40;;;;;;;33.35;14.20;;;;;;;2.23;100.00;92510.72;5012078;28;20508;-90
2021/03/10 06:01:07;;;;;;;31.92;13.95;;;;;;;2.14;100.00;92480.41;5011555;28;20065;-90
2021/03/10 06:03:33;;;;;;;22.38;10.23;;;;;;;2.23;100.00;92490.47;5013197;28;20490;-90
2021/03/10 06:06:01;;;;;;;27.00;16.45;;;;;;;2.16;100.00;92479.47;5012504;28;20058;-91
2021/03/10 06:08:29;;;;;;;24.80;11.13;;;;;;;2.26;100.00;92498.50;5011907;28;20766;-91
2021/03/10 06:10:57;;;;;;;25.40;12.93;;;;;;;1.89;100.00;92434.28;5011924;28;20053;-92
2021/03/10 06:13:24;;;;;;;25.50;11.52;;;;;;;2.49;100.00;92519.59;5012111;28;20046;-90
2021/03/10 06:15:53;;;;;;;16.92;10.27;;;;;;;2.37;100.00;92526.88;5011912;28;20100;-89
2021/03/10 06:18:28;;;;;;;15.45;10.95;;;;;;;2.26;100.00;92510.34;5011716;28;20049;-90
2021/03/10 06:21:08;;;;;;;17.80;11.37;;;;;;;2.11;100.00;92506.09;5012017;28;20052;-88
2021/03/10 06:23:34;;;;;;;16.05;10.80;;;;;;;2.37;100.00;92519.28;5011730;28;20046;-88
2021/03/10 06:26:02;;;;;;;20.02;9.95;;;;;;;2.34;100.00;92494.28;5011773;28;20046;-88
2021/03/10 06:28:35;;;;;;;11.80;6.53;;;;;;;2.30;100.00;92515.88;5011930;28;20392;-89
2021/03/10 06:31:01;;;;;;;13.20;7.20;;;;;;;2.08;100.00;92483.63;5011682;28;20045;-89
2021/03/10 06:33:28;;;;;;;11.20;6.25;;;;;;;2.35;100.00;92514.38;5011633;28;20054;-88
2021/03/10 06:35:54;;;;;;;16.92;9.45;;;;;;;1.97;100.00;92462.09;5011510;28;20512;-89
2021/03/10 06:38:21;;;;;;;13.93;8.10;;;;;;;2.25;100.00;92519.72;5011693;28;20806;-88
2021/03/10 06:40:53;;;;;;;24.73;11.68;;;;;;;1.98;100.00;92478.84;5011740;28;20046;-90
2021/03/10 06:43:22;;;;;;;18.35;10.13;;;;;;;1.78;100.00;92455.00;5011419;28;20096;-90
2021/03/10 06:45:48;;;;;;;20.65;7.40;;;;;;;2.23;100.00;92524.16;5011604;28;20041;-90
2021/03/10 06:48:19;;;;;;;12.40;7.97;;;;;;;2.19;100.00;92533.09;5011432;28;20053;-90
2021/03/10 06:50:46;;;;;;;11.50;7.30;;;;;;;1.79;100.00;92474.28;5011328;28;20053;-90
2021/03/10 06:53:12;;;;;;;13.10;7.07;;;;;;;1.80;100.00;92468.28;5011543;28;20057;-90
2021/03/10 06:55:40;;;;;;;11.05;7.88;;;;;;;2.11;100.00;92511.16;5011718;28;20054;-89
2021/03/10 06:58:07;;;;;;;13.98;8.18;;;;;;;2.31;100.00;92535.19;5011345;28;20811;-90
2021/03/10 07:00:35;;;;;;;21.23;11.20;;;;;;;1.79;100.00;92472.56;5011125;28;20081;-90
2021/03/10 07:03:02;;;;;;;14.90;9.57;;;;;;;2.35;100.00;92534.66;5011570;28;20203;-90
2021/03/10 07:05:30;;;;;;;13.90;7.72;;;;;;;2.39;100.00;92537.63;5011461;28;20057;-90
2021/03/10 07:07:57;;;;;;;17.92;8.05;;;;;;;2.43;100.00;92538.06;5011035;28;20053;-90
2021/03/10 07:10:27;;;;;;;14.35;9.27;;;;;;;2.35;100.00;92526.25;5011064;28;20046;-90
2021/03/10 07:12:57;;;;;;;18.92;8.65;;;;;;;2.31;100.00;92517.47;5010863;28;20133;-90
2021/03/10 07:15:23;;;;;;;11.18;7.45;;;;;;;2.18;100.00;92500.34;5011210;28;20217;-90
2021/03/10 07:17:54;;;;;;;10.52;5.90;;;;;;;2.36;100.00;92548.91;5010872;28;20081;-90
2021/03/10 07:20:22;;;;;;;13.63;6.03;;;;;;;2.21;100.00;92533.72;5011017;28;20096;-90
2021/03/10 07:23:02;;;;;;;19.75;9.90;;;;;;;1.97;100.00;92509.41;5011084;28;20140;-90
2021/03/10 07:25:32;;;;;;;14.55;7.68;;;;;;;1.97;100.00;92511.94;5011025;28;20050;-90
2021/03/10 07:28:01;;;;;;;16.77;7.93;;;;;;;1.62;100.00;92493.94;5011098;28;20401;-90
2021/03/10 07:30:36;;;;;;;11.15;7.20;;;;;;;1.78;100.00;92519.09;5010944;28;20056;-89
2021/03/10 07:33:09;;;;;;;13.85;8.52;;;;;;;1.95;100.00;92546.81;5011147;28;20089;-88
2021/03/10 07:35:50;;;;;;;11.93;7.47;;;;;;;1.72;100.00;92512.97;5010816;28;20046;-88
2021/03/10 07:38:17;;;;;;;10.43;5.22;;;;;;;1.92;100.00;92549.66;5010749;28;20054;-88
2021/03/10 07:40:58;;;;;;;11.43;6.90;;;;;;;1.62;100.00;92509.88;5010631;28;20484;-90
2021/03/10 07:43:38;;;;;;;7.47;4.88;;;;;;;1.70;100.00;92529.28;5010816;28;20409;-87
2021/03/10 07:46:16;;;;;;;6.05;3.95;;;;;;;1.57;100.00;92512.19;5010967;28;20050;-90
2021/03/10 07:48:44;;;;;;;7.68;4.30;;;;;;;1.78;100.00;92534.28;4344522;28;20001511;-91
2021/03/10 07:51:10;;;;;;;8.02;4.68;;;;;;;1.71;100.00;92519.00;5050210;28;20049;-89
2021/03/10 07:53:37;;;;;;;7.30;4.97;;;;;;;1.72;100.00;92535.75;5050137;28;20053;-86
2021/03/10 07:56:04;;;;;;;10.63;7.00;;;;;;;1.80;100.00;92534.91;5048226;28;20037;-89
2021/03/10 07:58:32;;;;;;;7.32;4.30;;;;;;;1.77;100.00;92537.00;5050203;28;20055;-90
2021/03/10 08:00:58;;;;;;;7.15;4.07;;;;;;;1.71;100.00;92493.66;5050320;28;20132;-90
2021/03/10 08:03:29;;;;;;;7.22;4.57;;;;;;;2.04;100.00;92524.72;5050036;28;20052;-90
2021/03/10 08:06:01;;;;;;;8.82;4.53;;;;;;;2.13;100.00;92532.03;5050174;28;20045;-90
2021/03/10 08:08:34;;;;;;;6.82;3.83;;;;;;;1.88;100.00;92521.38;5050142;28;20412;-87
2021/03/10 08:11:07;;;;;;;11.32;4.97;;;;;;;1.80;100.00;92501.97;5050035;28;20045;-89
2021/03/10 08:13:33;;;;;;;6.43;3.70;;;;;;;1.87;100.00;92515.50;5050099;28;20452;-89
2021/03/10 08:16:04;;;;;;;12.65;5.63;;;;;;;2.02;100.00;92509.69;5049938;28;20053;-90
2021/03/10 08:18:32;;;;;;;10.18;6.10;;;;;;;1.96;100.00;92502.78;5050345;28;20519;-89
2021/03/10 08:21:06;;;;;;;6.35;3.33;;;;;;;1.93;100.00;92500.56;5050060;28;20527;-87
2021/03/10 08:23:32;;;;;;;5.85;3.85;;;;;;;1.94;100.00;92510.53;5050038;28;20080;-90
2021/03/10 08:25:59;;;;;;;6.90;4.60;;;;;;;1.98;100.00;92508.44;5052949;28;20052;-89
2021/03/10 08:28:33;;;;;;;7.65;4.03;;;;;;;1.79;100.00;92500.41;5053590;28;20057;-90
2021/03/10 08:31:08;;;;;;;8.43;6.43;;;;;;;1.80;100.00;92496.13;5053600;28;20412;-90
2021/03/10 08:33:46;;;;;;;8.00;5.10;;;;;;;1.98;100.00;92519.38;5053580;28;20053;-91
2021/03/10 08:36:13;;;;;;;8.00;5.55;;;;;;;1.85;100.00;92506.53;5053521;28;20045;-90
2021/03/10 08:38:40;;;;;;;10.30;6.45;;;;;;;2.04;100.00;92512.81;5053297;28;20061;-92
2021/03/10 08:41:08;;;;;;;8.20;4.38;;;;;;;1.54;100.00;92434.03;5053319;28;20480;-91
2021/03/10 08:43:34;;;;;;;8.70;4.82;;;;;;;1.76;100.00;92490.63;5053284;28;20480;-90
2021/03/10 08:46:00;;;;;;;14.18;6.65;;;;;;;1.75;100.00;92495.88;5043047;28;20049;-91
2021/03/10 08:48:32;;;;;;;12.68;6.35;;;;;;;1.70;100.00;92491.31;5052667;28;20056;-90
2021/03/10 08:51:01;;;;;;;12.00;7.13;;;;;;;1.86;100.00;92518.25;5053149;28;20507;-89
2021/03/10 08:53:28;;;;;;;11.63;6.15;;;;;;;1.84;100.00;92527.72;5052938;28;20098;-90
2021/03/10 08:56:05;;;;;;;13.88;6.70;;;;;;;1.55;100.00;92512.34;5053281;28;20056;-89
2021/03/10 08:58:31;;;;;;;7.53;5.28;;;;;;;1.58;100.00;92528.94;5052974;28;20615;-89
2021/03/10 09:00:57;;;;;;;11.48;6.72;;;;;;;1.56;100.00;92526.56;5053309;28;20045;-88
2021/03/10 09:03:24;;;;;;;14.38;7.35;;;;;;;1.47;100.00;92535.16;5053037;28;20045;-89
2021/03/10 09:05:52;;;;;;;12.57;8.00;;;;;;;1.44;100.00;92535.53;5052905;28;20049;-86
2021/03/10 09:08:22;;;;;;;17.45;9.48;;;;;;;1.48;100.00;92534.22;5052935;28;20059;-90
2021/03/10 09:10:52;;;;;;;20.17;9.65;;;;;;;1.44;100.00;92533.00;5053055;28;20049;-84
2021/03/10 09:13:19;;;;;;;17.52;8.02;;;;;;;1.53;100.00;92546.38;5052668;28;20049;-91
2021/03/10 09:15:46;;;;;;;15.95;8.63;;;;;;;1.42;100.00;92539.97;5052760;28;20056;-91
2021/03/10 09:18:12;;;;;;;13.07;7.07;;;;;;;1.37;100.00;92517.69;5052682;28;20051;-91
2021/03/10 09:20:40;;;;;;;16.30;7.93;;;;;;;1.13;100.00;92511.06;5052559;28;20044;-92
2021/03/10 09:23:07;;;;;;;14.05;8.35;;;;;;;1.39;100.00;92551.22;5052779;28;20045;-92
2021/03/10 09:25:36;;;;;;;17.42;8.43;;;;;;;1.59;100.00;92549.00;5052520;28;20045;-92
2021/03/10 09:28:05;;;;;;;13.15;8.13;;;;;;;1.77;100.00;92552.19;5052591;28;20065;-91
2021/03/10 09:30:35;;;;;;;15.43;7.57;;;;;;;1.86;100.00;92546.09;5052492;28;20041;-91
2021/03/10 09:33:02;;;;;;;9.43;5.30;;;;;;;1.93;100.00;92553.75;5052303;28;20049;-92
2021/03/10 09:35:31;;;;;;;12.23;5.93;;;;;;;1.81;100.00;92530.63;5052591;28;20055;-90
2021/03/10 09:37:58;;;;;;;10.73;4.90;;;;;;;1.90;100.00;92546.53;5052224;28;20436;-90
2021/03/10 09:40:37;;;;;;;11.95;7.25;;;;;;;2.08;100.00;92562.19;5052284;28;20087;-91
2021/03/10 09:43:06;;;;;;;15.00;7.05;;;;;;;2.21;100.00;92558.25;5052346;28;20055;-91
2021/03/10 09:45:35;;;;;;;12.18;5.57;;;;;;;2.16;100.00;92537.75;5052049;28;20747;-90
2021/03/10 09:48:03;;;;;;;13.82;6.20;;;;;;;2.17;100.00;92541.84;5052261;28;20049;-92
2021/03/10 09:50:31;;;;;;;12.88;8.60;;;;;;;2.06;100.00;92525.31;5052093;28;20051;-91
2021/03/10 09:52:58;;;;;;;14.07;6.95;;;;;;;2.34;100.00;92555.91;5052187;28;20060;-91
2021/03/10 09:55:26;;;;;;;13.10;6.85;;;;;;;2.21;100.00;92556.50;5051943;28;20079;-92
2021/03/10 09:58:03;;;;;;;10.15;5.20;;;;;;;2.18;100.00;92556.06;5051971;28;20053;-91
2021/03/10 10:00:31;;;;;;;11.40;6.88;;;;;;;2.12;100.00;92555.00;5051985;28;20127;-91
2021/03/10 10:02:57;;;;;;;10.68;6.60;;;;;;;2.06;100.00;92561.56;5051921;28;20102;-91
2021/03/10 10:05:25;;;;;;;10.93;6.07;;;;;;;1.96;100.00;92554.22;5051909;28;20056;-91
2021/03/10 10:07:52;;;;;;;8.70;4.25;;;;;;;2.03;100.00;92561.91;5051658;28;20675;-92
2021/03/10 10:10:19;;;;;;;9.90;5.75;;;;;;;1.85;100.00;92542.75;5051768;28;20044;-90
2021/03/10 10:12:47;;;;;;;6.70;3.53;;;;;;;1.96;100.00;92569.44;5051524;28;20139;-91
2021/03/10 10:15:17;;;;;;;8.65;5.45;;;;;;;1.83;100.00;92557.34;5051671;28;20091;-91
2021/03/10 10:17:46;;;;;;;13.82;6.65;;;;;;;1.85;100.00;92572.38;5051698;28;20110;-91
2021/03/10 10:20:16;;;;;;;7.20;5.97;;;;;;;1.98;100.00;92569.25;5051487;28;20045;-91
2021/03/10 10:22:44;;;;;;;10.27;5.70;;;;;;;1.93;100.00;92557.09;5051445;28;20063;-89
2021/03/10 10:25:13;;;;;;;10.48;6.00;;;;;;;1.91;100.00;92546.38;5051274;28;20049;-92
2021/03/10 10:27:40;;;;;;;8.43;5.57;;;;;;;1.87;100.00;92555.25;5051572;28;20053;-92
2021/03/10 10:30:07;;;;;;;9.07;5.72;;;;;;;2.08;100.00;92567.25;5051554;28;20049;-93
2021/03/10 10:32:34;;;;;;;12.10;6.57;;;;;;;1.87;100.00;92540.06;5051471;28;20407;-91
2021/03/10 10:35:01;;;;;;;11.88;7.55;;;;;;;1.96;100.00;92538.25;5051401;28;20056;-92
2021/03/10 10:37:27;;;;;;;9.00;6.28;;;;;;;2.26;100.00;92561.84;5051269;28;20052;-90
2021/03/10 10:39:54;;;;;;;10.40;5.90;;;;;;;2.27;100.00;92565.19;5050982;28;20059;-92
2021/03/10 10:42:20;;;;;;;11.95;6.65;;;;;;;2.20;100.00;92549.06;5051167;28;20511;-93
2021/03/10 10:44:47;;;;;;;10.15;6.32;;;;;;;2.19;100.00;92560.97;5051337;28;20053;-93
2021/03/10 10:47:13;;;;;;;11.18;5.30;;;;;;;2.22;100.00;92558.06;5050647;28;20045;-93
2021/03/10 10:49:39;;;;;;;;;;;;;;;2.26;100.00;92558.50;5051541;28;20045;-92
2021/03/10 10:52:06;;;;;;;11.60;6.55;;;;;;;2.10;100.00;92540.00;5051129;28;19924;-92
2021/03/10 10:54:32;;;;;;;15.95;7.70;;;;;;;2.33;100.00;92563.69;5050933;28;20052;-92
2021/03/10 10:56:59;;;;;;;11.90;7.47;;;;;;;2.40;100.00;92564.53;5050836;28;20048;-92
2021/03/10 10:59:25;;;;;;;;;;;;;;;2.45;100.00;92564.03;5051449;28;20048;-92
2021/03/10 11:01:51;;;;;;;10.95;8.02;;;;;;;2.31;100.00;92553.72;5051173;28;19982;-93
2021/03/10 11:04:18;;;;;;;10.77;7.35;;;;;;;2.38;100.00;92566.47;5051004;28;20049;-91
2021/03/10 11:06:44;;;;;;;12.80;8.38;;;;;;;2.39;100.00;92562.97;5051042;28;20099;-92
2021/03/10 11:09:11;;;;;;;;;;;;;;;2.24;100.00;92561.25;5051431;28;20449;-92
2021/03/10 11:11:37;;;;;;;14.82;8.82;;;;;;;2.24;100.00;92550.31;5050910;28;19935;-92
2021/03/10 11:14:03;;;;;;;;;;;;;;;2.29;100.00;92550.56;5051401;28;20581;-91
2021/03/10 11:16:30;;;;;;;14.13;7.38;;;;;;;2.27;100.00;92550.75;5067225;28;19920;-93
2021/03/10 11:32:02;;;;;;;21.57;9.23;;;;;;;2.57;100.00;92526.31;5080868;27;849152;-75
2021/03/10 11:34:29;;;;;;;12.45;7.20;;;;;;;2.53;100.00;92539.38;5084170;28;20512;-77
2021/03/10 11:36:56;;;;;;;8.45;5.57;;;;;;;2.31;100.00;92535.19;5083759;28;20055;-78
2021/03/10 11:39:22;;;;;;;9.80;5.75;;;;;;;2.19;100.00;92533.09;5080102;28;20094;-78
2021/03/10 11:41:48;;;;;;;13.10;7.50;;;;;;;2.08;100.00;92531.00;5085268;28;20476;-77
2021/03/10 11:44:15;;;;;;;17.48;6.57;;;;;;;2.06;100.00;92526.09;5083908;28;20044;-78
2021/03/10 11:46:42;;;;;;;12.48;7.57;;;;;;;1.98;100.00;92506.72;5085563;28;20075;-77